createdAt,value
2019-01-16T00:00:09.260Z,100.00
2019-01-16T00:03:10.100Z,100.00
2019-01-16T00:06:04.796Z,100.00
2019-01-16T00:08:51.563Z,100.00
2019-01-16T00:11:32.090Z,100.00
2019-01-16T00:14:19.285Z,100.00
2019-01-16T00:17:07.904Z,100.00
2019-01-16T00:19:51.880Z,100.00
2019-01-16T00:22:46.752Z,100.00
2019-01-16T00:25:34.142Z,100.00
2019-01-16T00:28:26.040Z,100.00
2019-01-16T00:31:09.704Z,100.00
2019-01-16T00:33:47.384Z,100.00
2019-01-16T00:36:27.241Z,100.00
2019-01-16T00:39:22.208Z,100.00
2019-01-16T00:42:10.798Z,100.00
2019-01-16T00:45:05.114Z,100.00
2019-01-16T00:48:03.427Z,100.00
2019-01-16T00:50:51.910Z,100.00
2019-01-16T00:53:31.462Z,100.00
2019-01-16T00:56:08.366Z,100.00
2019-01-16T00:58:55.816Z,100.00
2019-01-16T01:01:43.172Z,100.00
2019-01-16T01:04:30.767Z,100.00
2019-01-16T01:07:18.175Z,100.00
2019-01-16T01:10:14.556Z,100.00
2019-01-16T01:13:10.945Z,100.00
2019-01-16T01:15:58.910Z,100.00
2019-01-16T01:18:58.093Z,100.00
2019-01-16T01:21:45.620Z,100.00
2019-01-16T01:24:49.870Z,100.00
2019-01-16T01:27:42.376Z,100.00
2019-01-16T01:30:46.558Z,100.00
2019-01-16T01:33:26.618Z,100.00
2019-01-16T01:36:13.926Z,100.00
2019-01-16T01:38:58.927Z,100.00
2019-01-16T01:41:56.622Z,100.00
2019-01-16T01:44:43.884Z,99.92
2019-01-16T01:47:35.570Z,99.85
2019-01-16T01:50:37.593Z,99.87
2019-01-16T01:53:33.168Z,99.69
2019-01-16T01:56:20.977Z,99.85
2019-01-16T01:59:08.498Z,99.92
2019-01-16T02:02:00.201Z,99.88
2019-01-16T02:04:47.500Z,99.84
2019-01-16T02:07:36.944Z,99.78
2019-01-16T02:10:26.202Z,99.78
2019-01-16T02:13:10.182Z,99.42
2019-01-16T02:16:06.461Z,99.42
2019-01-16T02:18:55.118Z,99.67
2019-01-16T02:22:02.077Z,99.44
2019-01-16T02:24:49.748Z,99.43
2019-01-16T02:27:44.491Z,99.21
2019-01-16T02:30:33.376Z,99.25
2019-01-16T02:33:20.972Z,99.07
2019-01-16T02:36:07.773Z,99.18
2019-01-16T02:38:47.542Z,99.05
2019-01-16T02:41:33.230Z,98.95
2019-01-16T02:44:15.196Z,99.16
2019-01-16T02:47:12.259Z,98.75
2019-01-16T02:50:00.859Z,98.85
2019-01-16T02:52:42.193Z,98.62
2019-01-16T02:55:29.763Z,98.71
2019-01-16T02:58:27.680Z,98.70
2019-01-16T03:01:15.021Z,98.64
2019-01-16T03:04:01.009Z,98.81
2019-01-16T03:06:48.170Z,98.77
2019-01-16T03:09:39.897Z,98.80
2019-01-16T03:12:28.465Z,98.48
2019-01-16T03:15:20.054Z,98.56
2019-01-16T03:18:07.721Z,98.39
2019-01-16T03:20:55.215Z,98.38
2019-01-16T03:23:35.657Z,98.30
2019-01-16T03:26:29.853Z,98.36
2019-01-16T03:29:09.572Z,98.20
2019-01-16T03:32:16.402Z,98.25
2019-01-16T03:35:14.174Z,98.34
2019-01-16T03:38:11.695Z,98.14
2019-01-16T03:41:00.655Z,98.08
2019-01-16T03:43:49.235Z,98.15
2019-01-16T03:46:28.847Z,98.09
2019-01-16T03:49:23.597Z,97.79
2019-01-16T03:52:14.970Z,97.64
2019-01-16T03:55:02.200Z,97.70
2019-01-16T03:58:03.115Z,97.70
2019-01-16T04:00:54.594Z,97.82
2019-01-16T04:03:41.199Z,97.58
2019-01-16T04:06:28.493Z,97.43
2019-01-16T04:09:32.075Z,97.23
2019-01-16T04:12:28.663Z,97.10
2019-01-16T04:15:17.035Z,97.08
2019-01-16T04:18:20.795Z,97.25
2019-01-16T04:21:12.607Z,97.37
2019-01-16T04:24:10.330Z,97.58
2019-01-16T04:26:58.472Z,97.53
2019-01-16T04:29:46.073Z,97.60
2019-01-16T04:32:37.469Z,97.59
2019-01-16T04:35:18.107Z,98.11
2019-01-16T04:37:56.295Z,98.59
2019-01-16T04:40:44.854Z,98.56
2019-01-16T04:43:29.089Z,98.73
2019-01-16T04:46:24.183Z,98.38
2019-01-16T04:49:14.315Z,98.38
2019-01-16T04:52:05.868Z,97.98
2019-01-16T04:54:53.256Z,98.17
2019-01-16T04:57:47.713Z,97.86
2019-01-16T05:00:42.125Z,98.08
2019-01-16T05:03:45.544Z,97.90
2019-01-16T05:06:37.150Z,98.05
2019-01-16T05:09:25.954Z,98.39
2019-01-16T05:12:09.476Z,98.47
2019-01-16T05:14:59.677Z,98.72
2019-01-16T05:17:51.037Z,98.49
2019-01-16T05:20:38.285Z,98.83
2019-01-16T05:23:14.635Z,98.72
2019-01-16T05:26:07.293Z,98.72
2019-01-16T05:28:44.566Z,98.72
2019-01-16T05:31:35.658Z,98.66
2019-01-16T05:34:30.260Z,98.65
2019-01-16T05:37:21.715Z,98.80
2019-01-16T05:40:14.987Z,98.83
2019-01-16T05:42:53.182Z,98.61
2019-01-16T05:45:37.705Z,98.48
2019-01-16T05:48:26.295Z,98.34
2019-01-16T05:51:24.206Z,98.39
2019-01-16T05:54:11.851Z,97.76
2019-01-16T05:56:59.550Z,97.99
2019-01-16T05:59:54.370Z,98.19
2019-01-16T06:02:42.076Z,97.93
2019-01-16T06:05:24.303Z,97.97
2019-01-16T06:08:15.756Z,98.38
2019-01-16T06:10:58.802Z,98.09
2019-01-16T06:13:46.148Z,97.96
2019-01-16T06:16:46.638Z,97.95
2019-01-16T06:19:35.314Z,97.87
2019-01-16T06:22:22.858Z,97.56
2019-01-16T06:25:11.469Z,97.59
2019-01-16T06:28:06.225Z,97.69
2019-01-16T06:30:51.718Z,97.73
2019-01-16T06:33:31.226Z,97.67
2019-01-16T06:36:18.970Z,97.86
2019-01-16T06:39:13.262Z,97.74
2019-01-16T06:42:04.816Z,97.86
2019-01-16T06:44:52.470Z,97.83
2019-01-16T06:47:48.270Z,98.03
2019-01-16T06:50:28.584Z,97.96
2019-01-16T06:53:19.626Z,97.77
2019-01-16T06:56:12.610Z,97.91
2019-01-16T06:59:04.020Z,97.82
2019-01-16T07:01:55.001Z,97.84
2019-01-16T07:04:46.509Z,97.83
2019-01-16T07:07:28.106Z,97.46
2019-01-16T07:10:07.790Z,97.80
2019-01-16T07:13:02.284Z,97.74
2019-01-16T07:16:03.103Z,97.93
2019-01-16T07:18:46.848Z,98.17
2019-01-16T07:21:50.915Z,97.83
2019-01-16T07:24:57.810Z,97.81
2019-01-16T07:27:49.177Z,97.79
2019-01-16T07:30:36.380Z,97.59
2019-01-16T07:33:16.226Z,97.68
2019-01-16T07:36:10.664Z,97.37
2019-01-16T07:38:59.260Z,97.08
2019-01-16T07:41:46.691Z,97.12
2019-01-16T07:44:38.494Z,96.94
2019-01-16T07:47:39.250Z,96.66
2019-01-16T07:50:22.705Z,96.79
2019-01-16T07:53:08.927Z,96.47
2019-01-16T07:55:49.252Z,96.64
2019-01-16T07:58:33.200Z,96.62
2019-01-16T08:01:26.048Z,96.61
2019-01-16T08:04:19.830Z,96.42
2019-01-16T08:07:06.980Z,96.66
2019-01-16T08:09:43.716Z,96.58
2019-01-16T08:12:47.440Z,96.36
2019-01-16T08:15:49.701Z,96.54
2019-01-16T08:18:28.140Z,96.43
2019-01-16T08:21:11.509Z,96.47
2019-01-16T08:23:48.236Z,96.49
2019-01-16T08:26:45.892Z,96.49
2019-01-16T08:29:33.492Z,96.43
2019-01-16T08:32:21.064Z,95.97
2019-01-16T08:35:09.202Z,96.32
2019-01-16T08:38:09.881Z,95.95
2019-01-16T08:41:04.535Z,96.19
2019-01-16T08:43:52.230Z,95.92
2019-01-16T08:46:33.025Z,95.85
2019-01-16T08:49:24.875Z,95.96
2019-01-16T08:52:10.668Z,95.36
2019-01-16T08:55:06.221Z,95.42
2019-01-16T08:57:58.826Z,95.81
2019-01-16T09:00:47.519Z,95.37
2019-01-16T09:03:35.050Z,95.50
2019-01-16T09:06:22.581Z,95.46
2019-01-16T09:09:07.377Z,95.35
2019-01-16T09:11:52.321Z,95.51
2019-01-16T09:14:53.054Z,95.51
2019-01-16T09:17:42.341Z,95.30
2019-01-16T09:20:19.697Z,95.01
2019-01-16T09:23:01.908Z,94.85
2019-01-16T09:25:57.969Z,94.99
2019-01-16T09:28:53.552Z,94.84
2019-01-16T09:31:54.162Z,94.97
2019-01-16T09:34:51.735Z,94.96
2019-01-16T09:37:36.802Z,94.95
2019-01-16T09:40:39.479Z,94.98
2019-01-16T09:43:28.116Z,94.95
2019-01-16T09:46:17.319Z,94.92
2019-01-16T09:49:04.279Z,94.80
2019-01-16T09:51:53.028Z,94.70
2019-01-16T09:54:34.027Z,94.62
2019-01-16T09:57:28.841Z,94.52
2019-01-16T10:00:16.049Z,94.49
2019-01-16T10:03:03.802Z,94.39
2019-01-16T10:05:58.937Z,94.96
2019-01-16T10:08:40.401Z,94.24
2019-01-16T10:11:31.834Z,94.44
2019-01-16T10:14:11.354Z,93.94
2019-01-16T10:16:52.765Z,93.89
2019-01-16T10:19:40.441Z,94.24
2019-01-16T10:22:29.055Z,94.20
2019-01-16T10:25:19.239Z,94.13
2019-01-16T10:28:05.165Z,94.20
2019-01-16T10:30:57.077Z,93.98
2019-01-16T10:33:44.877Z,94.19
2019-01-16T10:36:26.502Z,94.77
2019-01-16T10:39:13.193Z,94.68
2019-01-16T10:42:13.891Z,94.66
2019-01-16T10:44:49.926Z,94.85
2019-01-16T10:47:37.348Z,94.82
2019-01-16T10:50:33.907Z,94.72
2019-01-16T10:53:35.414Z,95.06
2019-01-16T10:56:17.428Z,95.09
2019-01-16T10:58:59.935Z,95.54
2019-01-16T11:01:39.592Z,95.13
2019-01-16T11:04:28.210Z,95.77
2019-01-16T11:07:15.772Z,95.64
2019-01-16T11:10:13.354Z,95.72
2019-01-16T11:13:05.007Z,96.45
2019-01-16T11:15:47.611Z,96.69
2019-01-16T11:18:35.103Z,96.83
2019-01-16T11:21:26.917Z,97.35
2019-01-16T11:24:24.923Z,97.54
2019-01-16T11:27:04.963Z,97.34
2019-01-16T11:29:52.953Z,97.67
2019-01-16T11:32:40.493Z,97.83
2019-01-16T11:35:29.183Z,97.73
2019-01-16T11:38:17.802Z,97.62
2019-01-16T11:41:01.970Z,98.09
2019-01-16T11:43:49.454Z,97.75
2019-01-16T11:46:47.179Z,97.95
2019-01-16T11:49:49.485Z,97.58
2019-01-16T11:52:40.853Z,97.13
2019-01-16T11:55:35.670Z,97.07
2019-01-16T11:58:24.665Z,97.46
2019-01-16T12:01:13.407Z,97.83
2019-01-16T12:04:14.418Z,97.65
2019-01-16T12:07:10.107Z,97.70
2019-01-16T12:09:58.018Z,97.60
2019-01-16T12:12:40.925Z,97.84
2019-01-16T12:15:28.285Z,97.93
2019-01-16T12:18:14.113Z,98.07
2019-01-16T12:21:05.655Z,98.06
2019-01-16T12:23:55.368Z,97.90
2019-01-16T12:26:44.118Z,97.75
2019-01-16T12:29:32.752Z,97.31
2019-01-16T12:32:23.374Z,96.84
2019-01-16T12:35:09.771Z,96.88
2019-01-16T12:37:50.853Z,96.36
2019-01-16T12:40:51.433Z,96.37
2019-01-16T12:43:43.250Z,96.10
2019-01-16T12:46:32.782Z,96.22
2019-01-16T12:49:15.613Z,95.99
2019-01-16T12:52:10.265Z,96.76
2019-01-16T12:54:57.924Z,96.59
2019-01-16T12:57:45.746Z,96.94
2019-01-16T13:00:43.818Z,96.66
2019-01-16T13:03:38.800Z,96.71
2019-01-16T13:06:18.866Z,96.41
2019-01-16T13:09:01.835Z,96.19
2019-01-16T13:11:49.236Z,96.24
2019-01-16T13:14:36.850Z,96.03
2019-01-16T13:17:29.609Z,95.87
2019-01-16T13:20:30.244Z,95.81
2019-01-16T13:23:18.984Z,95.19
2019-01-16T13:26:20.038Z,95.34
2019-01-16T13:29:05.574Z,95.30
2019-01-16T13:31:54.556Z,95.32
2019-01-16T13:34:46.187Z,94.66
2019-01-16T13:37:33.766Z,94.89
2019-01-16T13:40:23.552Z,94.94
2019-01-16T13:43:21.357Z,94.35
2019-01-16T13:46:14.289Z,94.07
2019-01-16T13:48:57.005Z,94.32
2019-01-16T13:51:46.119Z,93.90
2019-01-16T13:54:29.530Z,93.61
2019-01-16T13:57:20.896Z,93.95
2019-01-16T14:00:05.478Z,93.62
2019-01-16T14:02:44.914Z,93.51
2019-01-16T14:05:22.354Z,93.30
2019-01-16T14:08:01.160Z,93.69
2019-01-16T14:10:45.185Z,93.35
2019-01-16T14:13:28.864Z,94.53
2019-01-16T14:16:17.782Z,94.56
2019-01-16T14:19:10.426Z,94.46
2019-01-16T14:22:03.740Z,94.52
2019-01-16T14:25:01.756Z,94.65
2019-01-16T14:28:08.646Z,93.83
2019-01-16T14:30:56.182Z,93.86
2019-01-16T14:33:43.670Z,93.70
2019-01-16T14:36:25.022Z,93.72
2019-01-16T14:39:12.268Z,93.36
2019-01-16T14:42:12.556Z,93.21
2019-01-16T14:45:00.216Z,92.92
2019-01-16T14:47:57.730Z,93.02
2019-01-16T14:50:32.480Z,92.48
2019-01-16T14:53:19.786Z,93.05
2019-01-16T14:56:08.392Z,92.91
2019-01-16T14:58:55.629Z,93.54
2019-01-16T15:01:44.323Z,93.41
2019-01-16T15:04:39.183Z,93.25
2019-01-16T15:07:23.706Z,92.90
2019-01-16T15:10:11.056Z,92.94
2019-01-16T15:12:56.295Z,93.03
2019-01-16T15:15:43.509Z,93.14
2019-01-16T15:18:29.651Z,92.92
2019-01-16T15:21:18.226Z,92.75
2019-01-16T15:24:05.920Z,92.62
2019-01-16T15:27:06.610Z,92.39
2019-01-16T15:29:52.229Z,92.28
2019-01-16T15:32:50.275Z,92.08
2019-01-16T15:35:44.755Z,92.05
2019-01-16T15:38:36.520Z,92.08
2019-01-16T15:41:25.521Z,91.36
2019-01-16T15:44:14.237Z,91.58
2019-01-16T15:47:05.947Z,91.45
2019-01-16T15:49:52.413Z,91.46
2019-01-16T15:52:33.372Z,91.48
2019-01-16T15:55:20.153Z,91.73
2019-01-16T15:58:01.549Z,92.17
2019-01-16T16:00:46.317Z,92.06
2019-01-16T16:03:28.123Z,91.45
2019-01-16T16:06:15.351Z,92.08
2019-01-16T16:09:03.052Z,92.02
2019-01-16T16:11:43.527Z,92.21
2019-01-16T16:14:23.615Z,92.02
2019-01-16T16:17:10.999Z,91.45
2019-01-16T16:19:59.741Z,91.77
2019-01-16T16:22:41.892Z,91.67
2019-01-16T16:25:29.438Z,91.38
2019-01-16T16:28:23.809Z,91.55
2019-01-16T16:31:21.443Z,91.68
2019-01-16T16:34:19.321Z,91.53
2019-01-16T16:37:01.755Z,91.19
2019-01-16T16:39:48.984Z,91.10
2019-01-16T16:42:36.204Z,90.73
2019-01-16T16:45:26.616Z,90.91
2019-01-16T16:48:18.259Z,91.02
2019-01-16T16:51:05.675Z,91.27
2019-01-16T16:54:00.997Z,90.91
2019-01-16T16:56:44.195Z,91.75
2019-01-16T16:59:33.462Z,91.36
2019-01-16T17:02:24.403Z,91.12
2019-01-16T17:05:25.182Z,90.64
2019-01-16T17:08:12.386Z,90.01
2019-01-16T17:10:59.638Z,90.00
2019-01-16T17:13:36.467Z,89.57
2019-01-16T17:16:16.189Z,89.77
2019-01-16T17:19:01.145Z,89.44
2019-01-16T17:21:42.045Z,89.18
2019-01-16T17:24:29.608Z,88.98
2019-01-16T17:27:14.818Z,88.47
2019-01-16T17:29:57.928Z,88.85
2019-01-16T17:32:44.645Z,88.43
2019-01-16T17:35:48.705Z,88.06
2019-01-16T17:38:35.960Z,88.86
2019-01-16T17:41:27.466Z,88.17
2019-01-16T17:44:25.418Z,88.21
2019-01-16T17:47:32.127Z,88.91
2019-01-16T17:50:19.080Z,88.98
2019-01-16T17:53:11.225Z,89.23
2019-01-16T17:56:01.963Z,89.36
2019-01-16T17:58:53.728Z,89.20
2019-01-16T18:01:41.462Z,88.96
2019-01-16T18:04:28.403Z,89.20
2019-01-16T18:07:35.476Z,89.21
2019-01-16T18:10:44.219Z,88.78
2019-01-16T18:13:27.960Z,89.85
2019-01-16T18:16:15.489Z,89.29
2019-01-16T18:19:02.967Z,89.13
2019-01-16T18:21:50.305Z,89.44
2019-01-16T18:24:47.864Z,89.05
2019-01-16T18:27:44.228Z,89.08
2019-01-16T18:30:46.732Z,88.36
2019-01-16T18:33:34.006Z,88.39
2019-01-16T18:36:17.598Z,88.36
2019-01-16T18:38:57.496Z,88.14
2019-01-16T18:41:37.353Z,87.92
2019-01-16T18:44:38.228Z,87.85
2019-01-16T18:47:39.353Z,88.84
2019-01-16T18:50:30.552Z,89.14
2019-01-16T18:53:21.028Z,89.92
2019-01-16T18:55:59.621Z,89.89
2019-01-16T18:58:40.760Z,90.20
2019-01-16T19:01:27.068Z,90.93
2019-01-16T19:04:08.088Z,90.88
2019-01-16T19:06:55.700Z,91.52
2019-01-16T19:09:42.990Z,91.50
2019-01-16T19:12:31.632Z,92.62
2019-01-16T19:15:19.020Z,92.33
2019-01-16T19:18:10.013Z,92.69
2019-01-16T19:21:02.484Z,92.24
2019-01-16T19:24:03.510Z,92.28
2019-01-16T19:26:50.908Z,92.65
2019-01-16T19:29:38.232Z,93.32
2019-01-16T19:32:30.071Z,93.58
2019-01-16T19:35:18.823Z,93.90
2019-01-16T19:38:25.948Z,93.45
2019-01-16T19:41:13.158Z,94.44
2019-01-16T19:44:00.330Z,93.32
2019-01-16T19:46:40.592Z,93.72
2019-01-16T19:49:38.435Z,93.85
2019-01-16T19:52:23.586Z,93.39
2019-01-16T19:55:14.225Z,93.15
2019-01-16T19:58:00.901Z,93.11
2019-01-16T20:00:49.509Z,93.03
2019-01-16T20:03:56.648Z,93.44
2019-01-16T20:06:51.508Z,93.19
2019-01-16T20:09:35.672Z,92.77
2019-01-16T20:12:33.661Z,92.85
2019-01-16T20:15:11.870Z,93.42
2019-01-16T20:17:53.098Z,92.98
2019-01-16T20:20:34.673Z,92.71
2019-01-16T20:23:30.997Z,93.28
2019-01-16T20:26:19.618Z,92.96
2019-01-16T20:29:15.616Z,92.71
2019-01-16T20:32:10.058Z,93.44
2019-01-16T20:35:09.954Z,93.48
2019-01-16T20:38:06.789Z,93.51
2019-01-16T20:40:48.238Z,93.49
2019-01-16T20:43:35.545Z,93.49
2019-01-16T20:46:18.283Z,92.64
2019-01-16T20:49:05.813Z,92.40
2019-01-16T20:52:03.778Z,91.67
2019-01-16T20:54:45.755Z,92.13
2019-01-16T20:57:32.804Z,91.54
2019-01-16T21:00:15.788Z,91.94
2019-01-16T21:03:00.660Z,92.10
2019-01-16T21:05:45.678Z,92.49
2019-01-16T21:08:38.081Z,91.35
2019-01-16T21:11:18.278Z,91.13
2019-01-16T21:13:57.922Z,91.53
2019-01-16T21:16:45.919Z,91.08
2019-01-16T21:19:41.236Z,90.90
2019-01-16T21:22:48.574Z,90.56
2019-01-16T21:25:45.415Z,90.84
2019-01-16T21:28:32.922Z,90.98
2019-01-16T21:31:20.198Z,90.86
2019-01-16T21:34:07.563Z,91.11
2019-01-16T21:37:05.433Z,91.08
2019-01-16T21:39:54.347Z,91.06
2019-01-16T21:42:41.942Z,91.21
2019-01-16T21:45:27.201Z,90.85
2019-01-16T21:48:22.993Z,90.60
2019-01-16T21:51:11.713Z,90.53
2019-01-16T21:53:50.725Z,90.68
2019-01-16T21:56:48.470Z,90.11
2019-01-16T21:59:49.224Z,90.52
2019-01-16T22:02:39.814Z,89.97
2019-01-16T22:05:34.021Z,90.64
2019-01-16T22:08:17.233Z,91.10
2019-01-16T22:11:18.252Z,91.29
2019-01-16T22:14:22.678Z,91.63
2019-01-16T22:17:08.470Z,91.63
2019-01-16T22:19:55.888Z,91.44
2019-01-16T22:22:37.968Z,91.99
2019-01-16T22:25:19.218Z,91.99
2019-01-16T22:28:13.787Z,92.25
2019-01-16T22:31:02.417Z,92.05
2019-01-16T22:34:02.979Z,91.06
2019-01-16T22:36:50.256Z,91.73
2019-01-16T22:39:42.364Z,91.52
2019-01-16T22:42:25.036Z,91.98
2019-01-16T22:45:13.951Z,91.43
2019-01-16T22:47:55.789Z,91.03
2019-01-16T22:50:43.683Z,91.60
2019-01-16T22:53:31.401Z,91.58
2019-01-16T22:56:38.176Z,91.18
2019-01-16T22:59:24.767Z,92.06
2019-01-16T23:02:02.663Z,91.48
2019-01-16T23:04:49.823Z,91.54
2019-01-16T23:07:29.762Z,91.63
2019-01-16T23:10:17.315Z,91.70
2019-01-16T23:13:05.295Z,91.46
2019-01-16T23:15:52.501Z,91.16
2019-01-16T23:18:39.733Z,91.20
2019-01-16T23:21:26.547Z,91.25
2019-01-16T23:24:20.483Z,91.25
2019-01-16T23:27:11.927Z,92.00
2019-01-16T23:29:53.361Z,92.19
2019-01-16T23:32:47.290Z,92.25
2019-01-16T23:35:30.867Z,92.71
2019-01-16T23:38:28.487Z,93.43
2019-01-16T23:41:25.993Z,93.62
2019-01-16T23:44:07.359Z,93.48
2019-01-16T23:47:08.293Z,93.67
2019-01-16T23:49:59.917Z,93.72
2019-01-16T23:52:48.603Z,94.14
2019-01-16T23:55:39.955Z,93.62
2019-01-16T23:58:26.337Z,93.51
